Airport View

Enter AWOS ICAO identifier for current METAR.

ex. KFNL

KDEN 241053Z 20012KT 10SM FEW060 SCT170 SCT220 11/02 A3001 RMK AO2 SLP111 T01110022 $

24 Jun 2019 11:10

Frequency: 125.600

Phone: 303-342-0838

Other Area AWOS: KFTG - KBKF - KAPA - KEIK

TAF AMD KDEN 240902Z 2409/2512 20012KT P6SM FEW110 FM241600 24006KT P6SM FEW120 FM241900 28012KT P6SM FEW120 SCT200 FM242200 30014G22KT P6SM FEW100 SCT150 FM250100 31009KT P6SM FEW100 SCT200 FM250300 23010KT P6SM SCT200